Time;durP1;ratioP1;P1;durP2;ratioP2;P2;SDS_P1;SDS_P2;PMS_P1;PMS_P2;Temp;Humidity;BMP_temperature;BMP_pressure;BME280_temperature;BME280_humidity;BME280_pressure;Samples;Min_cycle;Max_cycle;Signal;HPM_P1;HPM_P2
2023/04/14 00:01:37;;;;;;;;;;;13.70;84.30;;;;;;4143744;28;19927;-64
2023/04/14 00:04:18;;;;;;;;;;;13.70;84.30;;;;;;4144032;28;19933;-64
2023/04/14 00:07:00;;;;;;;;;;;13.70;84.40;;;;;;4143029;28;19944;-64
2023/04/14 00:09:41;;;;;;;;;;;13.60;84.40;;;;;;4146215;28;20023;-64
2023/04/14 00:12:21;;;;;;;;;;;13.60;84.40;;;;;;4150020;28;19932;-64
2023/04/14 00:15:04;;;;;;;;;;;13.60;84.40;;;;;;4143711;28;20023;-64
2023/04/14 00:17:44;;;;;;;;;;;13.60;84.40;;;;;;4145679;28;19933;-64
2023/04/14 00:20:26;;;;;;;;;;;13.60;84.40;;;;;;4158883;28;19960;-66
2023/04/14 00:23:06;;;;;;;;;;;13.60;84.40;;;;;;4160084;28;19944;-64
2023/04/14 00:25:47;;;;;;;;;;;13.60;84.50;;;;;;4158764;28;19932;-65
2023/04/14 00:28:27;;;;;;;;;;;13.60;84.50;;;;;;4158998;28;20026;-64
2023/04/14 00:31:10;;;;;;;;;;;13.60;84.50;;;;;;4143658;28;19933;-64
2023/04/14 00:33:50;;;;;;;;;;;13.60;84.50;;;;;;4143686;28;20265;-64
2023/04/14 00:36:31;;;;;;;;;;;13.60;84.50;;;;;;4154469;28;19986;-64
2023/04/14 00:39:13;;;;;;;;;;;13.50;84.40;;;;;;4148146;28;19928;-64
2023/04/14 00:41:54;;;;;;;;;;;13.50;84.40;;;;;;4142397;28;19932;-64
2023/04/14 00:44:35;;;;;;;;;;;13.50;84.40;;;;;;4144051;28;19929;-64
2023/04/14 00:47:17;;;;;;;;;;;13.50;84.50;;;;;;4142401;28;20014;-65
2023/04/14 00:49:58;;;;;;;;;;;13.50;84.50;;;;;;4153804;28;19933;-64
2023/04/14 00:52:38;;;;;;;;;;;13.50;84.50;;;;;;4142491;28;19963;-65
2023/04/14 00:55:20;;;;;;;;;;;13.50;85.30;;;;;;4154072;28;19929;-65
2023/04/14 00:58:02;;;;;;;;;;;13.50;84.40;;;;;;4143594;28;19932;-64
2023/04/14 01:00:42;;;;;;;;;;;13.50;84.40;;;;;;4142430;28;20440;-65
2023/04/14 01:03:25;;;;;;;;;;;13.50;84.40;;;;;;4144291;28;20055;-64
2023/04/14 01:06:06;;;;;;;;;;;13.50;84.40;;;;;;4158639;28;19928;-64
2023/04/14 01:08:48;;;;;;;;;;;13.40;84.30;;;;;;4158407;28;19960;-64
2023/04/14 01:11:31;;;;;;;;;;;13.50;84.30;;;;;;4159464;28;19928;-64
2023/04/14 01:14:13;;;;;;;;;;;13.40;84.20;;;;;;4150550;28;19931;-64
2023/04/14 01:16:56;;;;;;;;;;;13.40;84.20;;;;;;4157750;28;20322;-64
2023/04/14 01:19:52;;;;;;;;;;;13.40;84.20;;;;;;4159706;28;19992;-65
2023/04/14 01:22:35;;;;;;;;;;;13.40;84.30;;;;;;4157682;28;20066;-64
2023/04/14 01:25:28;;;;;;;;;;;13.40;84.30;;;;;;4142580;28;19928;-65
2023/04/14 01:28:14;;;;;;;;;;;13.40;84.20;;;;;;4155551;28;20022;-65
2023/04/14 01:31:02;;;;;;;;;;;13.40;84.20;;;;;;4158174;28;19931;-64
2023/04/14 01:33:48;;;;;;;;;;;13.40;84.10;;;;;;4157623;28;20418;-65
2023/04/14 01:36:32;;;;;;;;;;;13.40;84.10;;;;;;4150052;28;20293;-65
2023/04/14 01:39:18;;;;;;;;;;;13.30;84.00;;;;;;4157967;28;19931;-65
2023/04/14 01:42:00;;;;;;;;;;;13.30;84.00;;;;;;4159207;28;20390;-65
2023/04/14 01:44:42;;;;;;;;;;;13.30;84.00;;;;;;4157852;28;19928;-65
2023/04/14 01:47:24;;;;;;;;;;;13.30;84.00;;;;;;4158016;28;20080;-64
2023/04/14 01:50:09;;;;;;;;;;;13.30;84.00;;;;;;4146108;28;19975;-64
2023/04/14 01:52:53;;;;;;;;;;;13.30;84.00;;;;;;4157970;28;20021;-65
2023/04/14 01:55:34;;;;;;;;;;;13.30;84.00;;;;;;4146105;28;19928;-64
2023/04/14 01:58:16;;;;;;;;;;;13.30;83.90;;;;;;4148106;28;19928;-64
2023/04/14 02:00:58;;;;;;;;;;;13.30;84.00;;;;;;4146519;28;19932;-64
2023/04/14 02:03:39;;;;;;;;;;;13.30;84.00;;;;;;4158700;28;19932;-64
2023/04/14 02:06:22;;;;;;;;;;;13.30;84.00;;;;;;4158862;28;19947;-64
2023/04/14 02:09:04;;;;;;;;;;;13.20;84.90;;;;;;4159219;28;20063;-64
2023/04/14 02:11:46;;;;;;;;;;;13.20;84.10;;;;;;4158152;28;20006;-66
2023/04/14 02:14:27;;;;;;;;;;;13.20;84.10;;;;;;4148550;28;19932;-64
2023/04/14 02:17:09;;;;;;;;;;;13.20;84.20;;;;;;4141666;28;19928;-64
2023/04/14 02:19:51;;;;;;;;;;;13.20;84.20;;;;;;4141540;28;19928;-64
2023/04/14 02:22:33;;;;;;;;;;;13.20;84.30;;;;;;4149658;28;19927;-64
2023/04/14 02:25:13;;;;;;;;;;;13.20;84.30;;;;;;4157984;28;20717;-64
2023/04/14 02:27:55;;;;;;;;;;;13.20;84.30;;;;;;4154221;28;19928;-64
2023/04/14 02:30:38;;;;;;;;;;;13.20;84.30;;;;;;4147629;28;20296;-64
2023/04/14 02:33:21;;;;;;;;;;;13.20;84.40;;;;;;4153013;28;19944;-65
2023/04/14 02:36:03;;;;;;;;;;;13.20;84.30;;;;;;4160613;28;20390;-64
2023/04/14 02:38:46;;;;;;;;;;;13.20;84.40;;;;;;4162035;28;20729;-64
2023/04/14 02:41:30;;;;;;;;;;;13.20;84.40;;;;;;4161600;28;19947;-64
2023/04/14 02:44:14;;;;;;;;;;;13.10;84.20;;;;;;4160137;28;20272;-64
2023/04/14 02:46:57;;;;;;;;;;;13.10;84.30;;;;;;4160544;28;20331;-64
2023/04/14 02:49:40;;;;;;;;;;;13.10;84.40;;;;;;4159926;28;19978;-66
2023/04/14 02:52:23;;;;;;;;;;;13.10;84.40;;;;;;4132799;28;19932;-65
2023/04/14 02:55:09;;;;;;;;;;;13.10;84.40;;;;;;4144378;28;19932;-64
2023/04/14 02:57:51;;;;;;;;;;;13.10;84.40;;;;;;4144217;28;19936;-64
2023/04/14 03:00:32;;;;;;;;;;;13.10;84.40;;;;;;4149855;28;19927;-64
2023/04/14 03:03:13;;;;;;;;;;;13.10;84.30;;;;;;4160234;28;19931;-64
2023/04/14 03:05:54;;;;;;;;;;;13.10;84.30;;;;;;4160426;28;19932;-64
2023/04/14 03:11:56;;;;;;;;;;;13.10;84.20;;;;;;4645855;23;20036;-66
2023/04/14 03:14:41;;;;;;;;;;;13.10;84.20;;;;;;4513424;23;1095679;31
2023/04/14 03:17:10;;;;;;;;;;;13.10;84.20;;;;;;4016876;29;20015;-64
2023/04/14 03:19:51;;;;;;;;;;;13.10;84.20;;;;;;4018227;29;19931;-64
2023/04/14 03:22:35;;;;;;;;;;;13.00;84.20;;;;;;4001728;29;19932;-64
2023/04/14 03:25:15;;;;;;;;;;;13.00;84.20;;;;;;4012731;29;19931;-63
2023/04/14 03:28:01;;;;;;;;;;;13.00;84.20;;;;;;4007226;29;19931;-63
2023/04/14 03:30:46;;;;;;;;;;;13.10;84.20;;;;;;4017424;29;19930;-63
2023/04/14 03:33:28;;;;;;;;;;;13.00;85.00;;;;;;4007850;29;19964;-63
2023/04/14 03:36:10;;;;;;;;;;;13.00;84.20;;;;;;4017483;29;19947;-64
2023/04/14 03:38:54;;;;;;;;;;;13.00;85.00;;;;;;4017179;29;20390;-64
2023/04/14 03:41:37;;;;;;;;;;;13.00;84.20;;;;;;4001750;29;19936;-64
2023/04/14 03:44:19;;;;;;;;;;;13.00;84.10;;;;;;4014118;29;20390;-64
2023/04/14 03:47:06;;;;;;;;;;;13.00;84.10;;;;;;4003672;29;19946;-64
2023/04/14 03:49:49;;;;;;;;;;;13.00;84.10;;;;;;4016939;29;20027;-64
2023/04/14 03:52:31;;;;;;;;;;;13.00;84.10;;;;;;4017297;29;19931;-64
2023/04/14 03:55:12;;;;;;;;;;;13.00;84.10;;;;;;4003146;29;20380;-63
2023/04/14 03:57:55;;;;;;;;;;;13.00;84.10;;;;;;4012438;29;20359;-63
2023/04/14 04:00:37;;;;;;;;;;;13.00;84.10;;;;;;4026440;29;19954;-63
2023/04/14 04:03:21;;;;;;;;;;;13.00;85.00;;;;;;4027806;29;19931;-63
2023/04/14 04:06:03;;;;;;;;;;;12.90;84.10;;;;;;4018242;29;19931;-63
2023/04/14 04:08:44;;;;;;;;;;;12.90;84.20;;;;;;3991295;29;19943;-63
2023/04/14 04:11:27;;;;;;;;;;;12.90;84.20;;;;;;4011606;29;19931;-63
2023/04/14 04:14:09;;;;;;;;;;;12.90;84.20;;;;;;4016858;29;19939;-63
2023/04/14 04:16:53;;;;;;;;;;;12.90;84.30;;;;;;4028700;29;20290;-63
2023/04/14 04:19:37;;;;;;;;;;;12.90;84.40;;;;;;4027503;29;19951;-63
2023/04/14 04:22:20;;;;;;;;;;;12.90;84.50;;;;;;4027117;29;19935;-63
2023/04/14 04:25:00;;;;;;;;;;;12.90;84.40;;;;;;4016771;29;20329;-64
2023/04/14 04:27:46;;;;;;;;;;;12.90;84.40;;;;;;4027426;29;19931;-63
2023/04/14 04:30:29;;;;;;;;;;;12.90;84.30;;;;;;4027250;29;20423;-64
2023/04/14 04:33:10;;;;;;;;;;;12.90;84.30;;;;;;4016419;29;20072;-64
2023/04/14 04:35:53;;;;;;;;;;;12.90;85.20;;;;;;4016633;29;19971;-64
2023/04/14 04:38:36;;;;;;;;;;;12.90;84.30;;;;;;4015933;29;19935;-63
2023/04/14 04:41:20;;;;;;;;;;;12.90;84.30;;;;;;4019578;29;20064;-64
2023/04/14 04:44:02;;;;;;;;;;;12.90;84.40;;;;;;4017085;29;19934;-64
2023/04/14 04:46:46;;;;;;;;;;;12.90;84.40;;;;;;4027019;29;20064;-64
2023/04/14 04:49:28;;;;;;;;;;;12.90;84.40;;;;;;4026271;29;19931;-64
2023/04/14 04:52:16;;;;;;;;;;;12.90;84.40;;;;;;4016355;29;20406;-64
2023/04/14 04:54:57;;;;;;;;;;;12.90;84.50;;;;;;4017431;29;19931;-64
2023/04/14 04:57:37;;;;;;;;;;;12.90;84.40;;;;;;4017538;29;19955;-64
2023/04/14 05:00:18;;;;;;;;;;;12.90;84.40;;;;;;4017163;29;20370;-63
2023/04/14 05:02:59;;;;;;;;;;;12.90;85.30;;;;;;4017466;29;19991;-63
2023/04/14 05:05:39;;;;;;;;;;;12.80;84.30;;;;;;4017527;29;20284;-64
2023/04/14 05:08:22;;;;;;;;;;;12.80;84.40;;;;;;4017306;29;19935;-64
2023/04/14 05:11:03;;;;;;;;;;;12.80;84.40;;;;;;4002164;29;20427;-63
2023/04/14 05:13:43;;;;;;;;;;;12.80;84.50;;;;;;4002295;29;20295;-63
2023/04/14 05:16:24;;;;;;;;;;;12.80;84.50;;;;;;4001246;29;19931;-63
2023/04/14 05:19:05;;;;;;;;;;;12.80;84.50;;;;;;4009042;29;19930;-63
2023/04/14 05:21:45;;;;;;;;;;;12.80;84.50;;;;;;4016724;29;19967;-64
2023/04/14 05:24:27;;;;;;;;;;;12.80;84.50;;;;;;4016831;29;20024;-64
2023/04/14 05:27:07;;;;;;;;;;;12.80;84.50;;;;;;4017207;29;20471;-64
2023/04/14 05:29:53;;;;;;;;;;;12.80;84.60;;;;;;4026601;29;19935;-63
2023/04/14 05:32:34;;;;;;;;;;;12.80;84.50;;;;;;4016760;29;19935;-64
2023/04/14 05:35:15;;;;;;;;;;;12.80;85.40;;;;;;4026444;29;19935;-63
2023/04/14 05:37:56;;;;;;;;;;;12.80;84.50;;;;;;4015554;29;19935;-64
2023/04/14 05:40:38;;;;;;;;;;;12.80;84.50;;;;;;4017127;29;20027;-64
2023/04/14 05:43:19;;;;;;;;;;;12.80;84.50;;;;;;4016735;29;19938;-64
2023/04/14 05:46:00;;;;;;;;;;;12.80;84.50;;;;;;4016124;29;19931;-62
2023/04/14 05:48:40;;;;;;;;;;;12.90;84.60;;;;;;4016841;29;20027;-63
2023/04/14 05:51:21;;;;;;;;;;;12.90;84.80;;;;;;4016872;29;19931;-64
2023/04/14 05:54:02;;;;;;;;;;;12.90;84.70;;;;;;4016748;29;19963;-63
2023/04/14 05:56:44;;;;;;;;;;;13.00;84.60;;;;;;4016481;29;19935;-64
2023/04/14 05:59:26;;;;;;;;;;;13.00;84.40;;;;;;4002648;29;20019;-62
2023/04/14 06:02:06;;;;;;;;;;;13.00;84.30;;;;;;4019332;29;20038;-63
2023/04/14 06:04:47;;;;;;;;;;;13.00;84.30;;;;;;4019645;29;19935;-63
2023/04/14 06:07:28;;;;;;;;;;;13.00;84.40;;;;;;4008647;29;19938;-63
2023/04/14 06:10:09;;;;;;;;;;;13.00;84.40;;;;;;4019882;29;19931;-63
2023/04/14 06:12:51;;;;;;;;;;;13.00;84.40;;;;;;4019764;29;20492;-63
2023/04/14 06:15:32;;;;;;;;;;;13.00;84.40;;;;;;4018645;29;19972;-63
2023/04/14 06:18:13;;;;;;;;;;;13.00;84.20;;;;;;4019626;29;20363;-63
2023/04/14 06:20:54;;;;;;;;;;;13.00;84.10;;;;;;4016919;29;19935;-63
2023/04/14 06:23:34;;;;;;;;;;;13.10;84.00;;;;;;4018442;29;19930;-63
2023/04/14 06:26:15;;;;;;;;;;;13.10;83.90;;;;;;4028813;29;20271;-63
2023/04/14 06:28:59;;;;;;;;;;;13.10;83.90;;;;;;4019499;29;19934;-63
2023/04/14 06:31:40;;;;;;;;;;;13.10;83.70;;;;;;4018391;29;20370;-63
2023/04/14 06:34:21;;;;;;;;;;;13.20;84.50;;;;;;4019636;29;20577;-63
2023/04/14 06:37:02;;;;;;;;;;;13.20;83.50;;;;;;4019334;29;20011;-63
2023/04/14 06:39:42;;;;;;;;;;;13.30;83.50;;;;;;4019354;29;19938;-63
2023/04/14 06:42:23;;;;;;;;;;;13.30;83.40;;;;;;4019064;29;20035;-62
2023/04/14 06:45:06;;;;;;;;;;;13.40;83.30;;;;;;4019318;29;20072;-63
2023/04/14 06:47:47;;;;;;;;;;;13.40;83.20;;;;;;4019134;29;20391;-63
2023/04/14 06:50:28;;;;;;;;;;;13.40;83.10;;;;;;4018442;29;19934;-62
2023/04/14 06:53:08;;;;;;;;;;;13.40;82.90;;;;;;4019186;29;20397;-62
2023/04/14 06:55:50;;;;;;;;;;;13.40;82.70;;;;;;4018142;29;20072;-62
2023/04/14 06:58:31;;;;;;;;;;;13.40;82.60;;;;;;4019227;29;19930;-62
2023/04/14 07:01:13;;;;;;;;;;;13.50;82.50;;;;;;4019190;29;19935;-63
2023/04/14 07:03:53;;;;;;;;;;;13.50;82.30;;;;;;4017051;29;19935;-63
2023/04/14 07:06:33;;;;;;;;;;;13.60;82.30;;;;;;4019210;29;20438;-63
2023/04/14 07:09:14;;;;;;;;;;;13.60;82.20;;;;;;4017946;29;19935;-63
2023/04/14 07:11:55;;;;;;;;;;;13.60;82.20;;;;;;4020602;29;20076;-62
2023/04/14 07:14:36;;;;;;;;;;;13.70;82.30;;;;;;4016888;29;20402;-62
2023/04/14 07:17:19;;;;;;;;;;;13.60;82.20;;;;;;4018003;29;19980;-62
2023/04/14 07:20:00;;;;;;;;;;;13.70;81.90;;;;;;4018244;29;19962;-62
2023/04/14 07:22:41;;;;;;;;;;;13.60;81.80;;;;;;4011188;29;20281;-62
2023/04/14 07:25:22;;;;;;;;;;;13.70;82.70;;;;;;4018366;29;19931;-63
2023/04/14 07:28:02;;;;;;;;;;;13.70;81.90;;;;;;4018047;29;19935;-63
2023/04/14 07:30:44;;;;;;;;;;;13.70;82.00;;;;;;4018685;29;20028;-63
2023/04/14 07:33:29;;;;;;;;;;;13.80;82.50;;;;;;4024410;29;19930;-64
2023/04/14 07:36:11;;;;;;;;;;;13.90;82.50;;;;;;4003102;29;19931;-63
2023/04/14 07:38:51;;;;;;;;;;;14.00;82.00;;;;;;4012991;29;19930;-63
2023/04/14 07:41:31;;;;;;;;;;;14.00;81.60;;;;;;4018622;29;20272;-62
2023/04/14 07:44:12;;;;;;;;;;;14.10;81.50;;;;;;4017966;29;19931;-61
2023/04/14 07:46:53;;;;;;;;;;;14.10;81.20;;;;;;4018182;29;20018;-61
2023/04/14 07:49:35;;;;;;;;;;;14.20;80.90;;;;;;4028228;29;20232;-61
2023/04/14 07:52:16;;;;;;;;;;;14.20;80.80;;;;;;4015487;29;19943;-61
2023/04/14 07:54:57;;;;;;;;;;;14.20;80.40;;;;;;4018182;29;19935;-61
2023/04/14 07:57:38;;;;;;;;;;;14.30;80.20;;;;;;4017523;29;19931;-61
2023/04/14 08:00:18;;;;;;;;;;;14.30;79.80;;;;;;4004799;29;19935;-61
2023/04/14 08:02:59;;;;;;;;;;;14.30;79.80;;;;;;4018365;29;19930;-61
2023/04/14 08:05:42;;;;;;;;;;;14.40;79.90;;;;;;4027704;29;19930;-61
2023/04/14 08:08:23;;;;;;;;;;;14.40;79.90;;;;;;4017979;29;20019;-61
2023/04/14 08:11:04;;;;;;;;;;;14.40;79.90;;;;;;4017750;29;20035;-61
2023/04/14 08:13:45;;;;;;;;;;;14.40;79.90;;;;;;4027668;29;20384;-61
2023/04/14 08:16:26;;;;;;;;;;;14.40;80.80;;;;;;4027596;29;19935;-61
2023/04/14 08:19:06;;;;;;;;;;;14.50;79.90;;;;;;4017981;29;19935;-61
2023/04/14 08:21:48;;;;;;;;;;;14.50;79.90;;;;;;4017790;29;19938;-61
2023/04/14 08:24:29;;;;;;;;;;;14.50;79.70;;;;;;4015844;29;20060;-61
2023/04/14 08:27:10;;;;;;;;;;;14.50;79.60;;;;;;4009152;29;19931;-61
2023/04/14 08:29:51;;;;;;;;;;;14.50;79.30;;;;;;4017579;29;19935;-61
2023/04/14 08:32:32;;;;;;;;;;;14.50;79.20;;;;;;4026319;29;20261;-61
2023/04/14 08:35:13;;;;;;;;;;;14.60;79.10;;;;;;4017803;29;20493;-61
2023/04/14 08:38:14;;;;;;;;;;;14.60;79.00;;;;;;4017150;29;19967;-61
2023/04/14 08:40:56;;;;;;;;;;;14.60;79.00;;;;;;4017748;29;19931;-60
2023/04/14 08:43:37;;;;;;;;;;;14.60;78.80;;;;;;4017609;29;20374;-61
2023/04/14 08:46:19;;;;;;;;;;;14.60;78.80;;;;;;4017554;29;20088;-61
2023/04/14 08:49:02;;;;;;;;;;;14.70;78.70;;;;;;4017080;29;19935;-61
2023/04/14 08:51:43;;;;;;;;;;;14.70;78.70;;;;;;4017025;29;19935;-60
2023/04/14 08:54:26;;;;;;;;;;;14.70;78.60;;;;;;4017478;29;20015;-60
2023/04/14 08:57:09;;;;;;;;;;;14.70;78.40;;;;;;4016647;29;19979;-61
2023/04/14 08:59:49;;;;;;;;;;;14.70;78.40;;;;;;4016651;29;19935;-61
2023/04/14 09:02:31;;;;;;;;;;;14.80;79.40;;;;;;4017125;29;19946;-62
2023/04/14 09:05:13;;;;;;;;;;;14.80;78.90;;;;;;4002002;29;20024;-62
2023/04/14 09:07:54;;;;;;;;;;;14.80;78.50;;;;;;4003400;29;19935;-63
2023/04/14 09:10:36;;;;;;;;;;;14.80;79.20;;;;;;4016299;29;20316;-62
2023/04/14 09:13:18;;;;;;;;;;;14.80;78.10;;;;;;4017312;29;20072;-62
2023/04/14 09:15:59;;;;;;;;;;;14.80;77.80;;;;;;4017293;29;20011;-61
2023/04/14 09:18:39;;;;;;;;;;;14.90;77.80;;;;;;4016896;29;19931;-62
2023/04/14 09:21:20;;;;;;;;;;;14.90;77.60;;;;;;4016172;29;19931;-62
2023/04/14 09:24:09;;;;;;;;;;;14.90;77.50;;;;;;4015901;29;20328;-62
2023/04/14 09:26:53;;;;;;;;;;;14.90;77.40;;;;;;4017083;29;19931;-62
2023/04/14 09:29:35;;;;;;;;;;;15.00;77.10;;;;;;4015786;29;19935;-62
2023/04/14 09:32:15;;;;;;;;;;;15.00;76.80;;;;;;4016640;29;19944;-62
2023/04/14 09:34:56;;;;;;;;;;;15.00;76.40;;;;;;4016981;29;19931;-62
2023/04/14 09:37:45;;;;;;;;;;;15.00;76.20;;;;;;4016659;29;19935;-62
2023/04/14 09:40:29;;;;;;;;;;;15.10;76.20;;;;;;4007431;29;19935;-62
2023/04/14 09:43:25;;;;;;;;;;;15.10;76.10;;;;;;4016796;29;19988;-62
2023/04/14 09:46:07;;;;;;;;;;;15.10;75.30;;;;;;4016325;29;19934;-62
2023/04/14 09:48:51;;;;;;;;;;;15.10;75.30;;;;;;4016408;29;19931;-62
2023/04/14 09:51:32;;;;;;;;;;;15.10;75.40;;;;;;4016895;29;19931;-62
2023/04/14 09:54:21;;;;;;;;;;;15.10;75.30;;;;;;4017006;29;19934;-62
2023/04/14 09:57:03;;;;;;;;;;;15.20;74.40;;;;;;4016542;29;19935;-62
2023/04/14 09:59:46;;;;;;;;;;;15.20;74.20;;;;;;4023345;29;19979;-62
2023/04/14 10:02:26;;;;;;;;;;;15.20;74.50;;;;;;4016917;29;20012;-61
2023/04/14 10:05:08;;;;;;;;;;;15.20;74.60;;;;;;4016927;29;19935;-62
2023/04/14 10:07:49;;;;;;;;;;;15.30;74.60;;;;;;4015721;29;19931;-62
2023/04/14 10:10:30;;;;;;;;;;;15.30;74.50;;;;;;4016350;29;19939;-62
2023/04/14 10:13:13;;;;;;;;;;;15.30;74.30;;;;;;4016244;29;20291;-61
2023/04/14 10:15:55;;;;;;;;;;;15.40;74.40;;;;;;4025779;29;19950;-61
2023/04/14 10:18:36;;;;;;;;;;;15.40;74.30;;;;;;4004850;29;19935;-62
2023/04/14 10:21:17;;;;;;;;;;;15.40;74.20;;;;;;4016466;29;19935;-62
2023/04/14 10:23:58;;;;;;;;;;;15.40;74.10;;;;;;4016348;29;19939;-63
2023/04/14 10:26:41;;;;;;;;;;;15.50;74.00;;;;;;4016487;29;20336;-62
2023/04/14 10:29:22;;;;;;;;;;;15.50;74.00;;;;;;4015758;29;19943;-62
2023/04/14 10:32:05;;;;;;;;;;;15.50;73.80;;;;;;4024072;29;19950;-62
2023/04/14 10:34:57;;;;;;;;;;;15.50;73.50;;;;;;4016589;29;19931;-61
2023/04/14 10:37:38;;;;;;;;;;;15.50;73.50;;;;;;4016254;29;20384;-62
2023/04/14 10:40:19;;;;;;;;;;;15.60;73.50;;;;;;4015042;29;20602;-62
2023/04/14 10:43:02;;;;;;;;;;;15.60;73.30;;;;;;4016796;29;19931;-62
2023/04/14 10:45:53;;;;;;;;;;;15.60;73.20;;;;;;4016146;29;19935;-62
2023/04/14 10:48:36;;;;;;;;;;;15.60;73.10;;;;;;4019289;29;20291;-62
2023/04/14 10:51:18;;;;;;;;;;;15.60;74.00;;;;;;4018918;29;20406;-61
2023/04/14 10:54:02;;;;;;;;;;;15.70;73.60;;;;;;4018957;29;20383;-62
2023/04/14 10:57:07;;;;;;;;;;;15.70;72.80;;;;;;4018898;29;20363;-62
2023/04/14 10:59:48;;;;;;;;;;;15.70;72.70;;;;;;4009083;29;19935;-61
2023/04/14 11:02:29;;;;;;;;;;;15.70;72.60;;;;;;4018701;29;19935;-61
2023/04/14 11:05:12;;;;;;;;;;;15.70;73.30;;;;;;4028362;29;20367;-61
2023/04/14 11:07:54;;;;;;;;;;;15.70;72.50;;;;;;4015610;29;20015;-62
2023/04/14 11:10:38;;;;;;;;;;;15.70;72.30;;;;;;4018694;29;19931;-61
2023/04/14 11:13:19;;;;;;;;;;;15.80;72.10;;;;;;4018766;29;19935;-61
2023/04/14 11:16:02;;;;;;;;;;;15.80;71.90;;;;;;4018854;29;19931;-61
2023/04/14 11:18:44;;;;;;;;;;;15.80;71.90;;;;;;4018762;29;19931;-61
2023/04/14 11:21:28;;;;;;;;;;;15.80;71.60;;;;;;4017977;29;20393;-61
2023/04/14 11:24:10;;;;;;;;;;;15.90;71.60;;;;;;4018526;29;19935;-62
2023/04/14 11:26:51;;;;;;;;;;;15.90;71.30;;;;;;4018088;29;20407;-62
2023/04/14 11:29:32;;;;;;;;;;;15.80;71.20;;;;;;4017760;29;19935;-60
2023/04/14 11:32:12;;;;;;;;;;;15.80;71.20;;;;;;4027468;29;20011;-61
2023/04/14 11:34:53;;;;;;;;;;;15.80;71.00;;;;;;4005910;29;19935;-62
2023/04/14 11:37:36;;;;;;;;;;;15.90;71.00;;;;;;4018263;29;20503;-62
2023/04/14 11:40:16;;;;;;;;;;;15.90;71.00;;;;;;4018393;29;19956;-62
2023/04/14 11:42:57;;;;;;;;;;;15.90;70.70;;;;;;4027644;29;20038;-62
2023/04/14 11:45:41;;;;;;;;;;;15.90;70.60;;;;;;4002854;29;19950;-62
2023/04/14 11:48:22;;;;;;;;;;;15.90;70.40;;;;;;4010935;29;19935;-62
2023/04/14 11:51:03;;;;;;;;;;;15.90;70.30;;;;;;4017778;29;19990;-63
2023/04/14 11:53:44;;;;;;;;;;;15.90;70.20;;;;;;4002742;29;20034;-62
2023/04/14 11:56:26;;;;;;;;;;;15.90;70.10;;;;;;4002562;29;19935;-59
2023/04/14 11:59:06;;;;;;;;;;;15.90;71.00;;;;;;4011238;29;19980;-63
2023/04/14 12:01:49;;;;;;;;;;;16.00;70.40;;;;;;4009518;29;19935;-63
2023/04/14 12:04:31;;;;;;;;;;;16.00;70.50;;;;;;4018280;29;20343;-61
2023/04/14 12:07:13;;;;;;;;;;;16.00;70.40;;;;;;4017365;29;19935;-62
2023/04/14 12:09:56;;;;;;;;;;;16.00;70.30;;;;;;4007780;29;20298;-61
2023/04/14 12:12:37;;;;;;;;;;;16.00;70.30;;;;;;4018000;29;19939;-61
2023/04/14 12:15:18;;;;;;;;;;;16.00;70.30;;;;;;4017483;29;19931;-60
2023/04/14 12:17:59;;;;;;;;;;;16.00;70.20;;;;;;4017697;29;19950;-61
2023/04/14 12:20:45;;;;;;;;;;;16.00;70.10;;;;;;4016790;29;20012;-63
2023/04/14 12:23:25;;;;;;;;;;;16.00;69.90;;;;;;4017573;29;20058;-60
2023/04/14 12:26:11;;;;;;;;;;;16.00;69.90;;;;;;4027105;29;20361;-61
2023/04/14 12:28:55;;;;;;;;;;;16.00;70.00;;;;;;4015448;29;19935;-60
2023/04/14 12:31:36;;;;;;;;;;;16.00;70.50;;;;;;4016127;29;19984;-61
2023/04/14 12:34:24;;;;;;;;;;;16.00;70.80;;;;;;4016173;29;19937;-61
2023/04/14 12:37:09;;;;;;;;;;;16.00;70.70;;;;;;4016597;29;19931;-60
2023/04/14 12:39:50;;;;;;;;;;;16.00;70.20;;;;;;4016435;29;19944;-60
2023/04/14 12:42:44;;;;;;;;;;;16.00;70.10;;;;;;4016575;29;20271;-61
2023/04/14 12:45:25;;;;;;;;;;;16.10;70.00;;;;;;4016871;29;19935;-61
2023/04/14 12:48:07;;;;;;;;;;;16.10;69.90;;;;;;4015970;29;19935;-61
2023/04/14 12:50:47;;;;;;;;;;;16.10;69.80;;;;;;4016418;29;20019;-60
2023/04/14 12:53:31;;;;;;;;;;;16.10;69.70;;;;;;4026090;29;20336;-60
2023/04/14 12:56:13;;;;;;;;;;;16.10;69.30;;;;;;4017661;29;20033;-71
2023/04/14 12:58:56;;;;;;;;;;;16.10;68.90;;;;;;4016172;29;19980;-71
2023/04/14 13:01:37;;;;;;;;;;;16.10;68.90;;;;;;4017496;29;19931;-71
2023/04/14 13:04:18;;;;;;;;;;;16.10;68.80;;;;;;4016610;29;19951;-71
2023/04/14 13:06:58;;;;;;;;;;;16.20;68.70;;;;;;4017710;29;20068;-71
2023/04/14 13:09:39;;;;;;;;;;;16.20;68.70;;;;;;4017059;29;20085;-71
2023/04/14 13:12:19;;;;;;;;;;;16.20;68.50;;;;;;4017700;29;19931;-71
2023/04/14 13:15:02;;;;;;;;;;;16.20;68.40;;;;;;4017095;29;20517;-70
2023/04/14 13:17:43;;;;;;;;;;;16.20;68.20;;;;;;4016928;29;19930;-72
2023/04/14 13:20:23;;;;;;;;;;;16.20;68.00;;;;;;4017526;29;19931;-72
2023/04/14 13:23:04;;;;;;;;;;;16.20;67.90;;;;;;4017201;29;19934;-71
2023/04/14 13:25:44;;;;;;;;;;;16.20;67.80;;;;;;4017397;29;19931;-72
2023/04/14 13:28:25;;;;;;;;;;;16.20;67.50;;;;;;4017291;29;19986;-71
2023/04/14 13:31:07;;;;;;;;;;;16.30;67.30;;;;;;4017324;29;20733;-71
2023/04/14 13:33:48;;;;;;;;;;;16.30;67.30;;;;;;4017166;29;19935;-71
2023/04/14 13:36:29;;;;;;;;;;;16.30;67.00;;;;;;4017267;29;19931;-71
2023/04/14 13:39:10;;;;;;;;;;;16.30;66.80;;;;;;4026419;29;20066;-71
2023/04/14 13:41:51;;;;;;;;;;;16.40;66.80;;;;;;4017218;29;19930;-72
2023/04/14 13:44:33;;;;;;;;;;;16.40;67.50;;;;;;4017004;29;20287;-71
2023/04/14 13:47:17;;;;;;;;;;;16.40;66.60;;;;;;4017323;29;19963;-72
2023/04/14 13:49:58;;;;;;;;;;;16.40;66.50;;;;;;4016992;29;19971;-71
2023/04/14 13:52:39;;;;;;;;;;;16.40;66.40;;;;;;4017232;29;20067;-71
2023/04/14 13:55:20;;;;;;;;;;;16.40;65.90;;;;;;4017046;29;20059;-71
2023/04/14 13:58:01;;;;;;;;;;;16.40;64.90;;;;;;4016992;29;19976;-71
2023/04/14 14:00:42;;;;;;;;;;;16.30;64.00;;;;;;4016321;29;20362;-71
2023/04/14 14:03:24;;;;;;;;;;;16.30;64.40;;;;;;4026782;29;19935;-71
2023/04/14 14:06:07;;;;;;;;;;;16.30;64.60;;;;;;4017268;29;20296;-71
2023/04/14 14:08:58;;;;;;;;;;;16.30;64.60;;;;;;4016766;29;19934;-71
2023/04/14 14:11:43;;;;;;;;;;;16.30;64.40;;;;;;4016619;29;19931;-71
2023/04/14 14:14:23;;;;;;;;;;;16.30;63.80;;;;;;4017013;29;20023;-71
2023/04/14 14:17:04;;;;;;;;;;;16.30;64.10;;;;;;4017165;29;20283;-71
2023/04/14 14:19:47;;;;;;;;;;;16.30;64.40;;;;;;4017131;29;19934;-72
2023/04/14 14:22:27;;;;;;;;;;;16.30;64.00;;;;;;4018551;29;19979;-71
2023/04/14 14:25:08;;;;;;;;;;;16.30;63.90;;;;;;4018920;29;19931;-69
2023/04/14 14:27:59;;;;;;;;;;;16.30;64.00;;;;;;4004631;29;20386;-68
2023/04/14 14:30:40;;;;;;;;;;;16.40;64.40;;;;;;4009725;29;19935;-65
2023/04/14 14:33:20;;;;;;;;;;;16.40;64.30;;;;;;4019742;29;19931;-63
2023/04/14 14:36:05;;;;;;;;;;;16.50;64.80;;;;;;4019189;29;19935;-68
2023/04/14 14:38:46;;;;;;;;;;;16.50;66.60;;;;;;4024840;29;20287;-66
2023/04/14 14:41:26;;;;;;;;;;;16.50;65.80;;;;;;4019486;29;19935;-65
2023/04/14 14:44:07;;;;;;;;;;;16.50;65.90;;;;;;4019534;29;20033;-66
2023/04/14 14:46:51;;;;;;;;;;;16.50;65.90;;;;;;4019321;29;20443;-65
2023/04/14 14:49:32;;;;;;;;;;;16.50;66.00;;;;;;4019162;29;19984;-66
2023/04/14 14:52:14;;;;;;;;;;;16.50;66.80;;;;;;4019887;29;20402;-63
2023/04/14 14:54:54;;;;;;;;;;;16.50;65.70;;;;;;4004263;29;19931;-62
2023/04/14 14:57:35;;;;;;;;;;;16.50;65.80;;;;;;4004205;29;20018;-62
2023/04/14 15:00:15;;;;;;;;;;;16.50;66.40;;;;;;4004662;29;20391;-62
2023/04/14 15:02:56;;;;;;;;;;;16.50;67.20;;;;;;4007142;29;20397;-62
2023/04/14 15:05:38;;;;;;;;;;;16.50;65.70;;;;;;4013871;29;20448;-62
2023/04/14 15:08:20;;;;;;;;;;;16.50;65.70;;;;;;4019481;29;19948;-62
2023/04/14 15:11:01;;;;;;;;;;;16.50;65.40;;;;;;4019471;29;19935;-62
2023/04/14 15:13:42;;;;;;;;;;;16.50;64.50;;;;;;4019153;29;20292;-62
2023/04/14 15:16:22;;;;;;;;;;;16.50;64.80;;;;;;4019157;29;19935;-62
2023/04/14 15:19:04;;;;;;;;;;;16.50;65.30;;;;;;4019346;29;20379;-62
2023/04/14 15:21:44;;;;;;;;;;;16.40;64.10;;;;;;4012507;29;19931;-63
2023/04/14 15:24:26;;;;;;;;;;;16.40;64.20;;;;;;4019588;29;19956;-62
2023/04/14 15:27:06;;;;;;;;;;;16.40;64.30;;;;;;4019279;29;19931;-62
2023/04/14 15:29:47;;;;;;;;;;;16.40;63.30;;;;;;4019028;29;19935;-62
2023/04/14 15:32:28;;;;;;;;;;;16.40;61.80;;;;;;4012873;29;20027;-63
2023/04/14 15:35:09;;;;;;;;;;;16.40;62.10;;;;;;4012943;29;20445;-63
2023/04/14 15:37:50;;;;;;;;;;;16.40;62.50;;;;;;4005468;29;20405;-64
2023/04/14 15:40:32;;;;;;;;;;;16.40;62.70;;;;;;4018161;29;20093;-64
2023/04/14 15:43:14;;;;;;;;;;;16.40;63.00;;;;;;4017914;29;20002;-66
2023/04/14 15:45:55;;;;;;;;;;;16.40;62.90;;;;;;4018889;29;19931;-65